Stiles, Wisconsin
Current Conditions -  °F | °C
As of 3:55 PM on Monday 20 Oct 2014 (Local Time) from KOCQ Reporting Station
Overcast Overcast  
Wind Chill: 47°   Ceiling: 3700
Heat Index: 49°   Visibility: 7mi
Dew Point: 45°   Wind: 5mph
Humidity: 86%   Direction: 330°NNW
Pressure: 29.91"   Gusts: NA
Location:  44.9552°N, 88.0505°W
Report Text: KOCQ 202055Z AUTO 33004KT 7SM SCT026 OVC037 09/07 A2991 RMK AO1 T00940071
Loading
Personal Weather Stations






























Interactive Weather Map
Tropical Storm Tracking
New forecast layout! Learn more

10-Day Weather Forecast

Advertisements
Track Severe Weather on mobile